createdAt,value
2023-03-06T02:31:27.485Z,1.77
2023-03-06T02:34:04.986Z,1.88
2023-03-06T02:36:39.632Z,1.90
2023-03-06T02:39:09.442Z,1.83
2023-03-06T02:41:39.078Z,1.90
2023-03-06T02:44:09.076Z,2.00
2023-03-06T02:46:37.820Z,1.92
2023-03-06T02:49:07.182Z,1.90
2023-03-06T02:51:36.377Z,2.10
2023-03-06T02:54:05.619Z,1.90
2023-03-06T02:56:34.689Z,1.70
2023-03-06T02:59:04.351Z,2.15
2023-03-06T03:01:33.388Z,2.22
2023-03-06T03:04:02.453Z,1.95
2023-03-06T03:06:31.952Z,1.90
2023-03-06T03:09:01.130Z,1.77
2023-03-06T03:11:30.560Z,1.95
2023-03-06T03:13:59.535Z,1.73
2023-03-06T03:16:29.785Z,2.00
2023-03-06T03:19:00.193Z,1.73
2023-03-06T03:21:29.069Z,1.80
2023-03-06T03:23:57.796Z,1.90
2023-03-06T03:26:30.114Z,1.70
2023-03-06T03:29:05.928Z,1.80
2023-03-06T03:31:34.836Z,1.80
2023-03-06T03:34:05.027Z,1.90
2023-03-06T03:36:38.430Z,1.80
2023-03-06T03:39:09.303Z,1.98
2023-03-06T03:41:39.553Z,1.90
2023-03-06T03:44:10.815Z,2.07
2023-03-06T03:46:40.899Z,1.90
2023-03-06T03:49:14.277Z,1.88
2023-03-06T03:51:47.059Z,1.70
2023-03-06T03:54:16.767Z,1.70
2023-03-06T03:56:48.460Z,1.85
2023-03-06T03:59:24.670Z,1.80
2023-03-06T04:02:08.153Z,1.98
2023-03-06T04:04:44.719Z,2.25
2023-03-06T04:07:13.887Z,1.88
2023-03-06T04:09:44.078Z,2.10
2023-03-06T04:12:14.956Z,1.83
2023-03-06T04:14:44.457Z,2.17
2023-03-06T04:17:13.283Z,1.90
2023-03-06T04:19:43.072Z,2.40
2023-03-06T04:22:12.613Z,2.30
2023-03-06T04:24:42.372Z,2.15
2023-03-06T04:27:11.313Z,1.83
2023-03-06T04:29:40.459Z,2.10
2023-03-06T04:32:10.469Z,2.10
2023-03-06T04:34:39.971Z,2.38
2023-03-06T04:37:19.403Z,2.00
2023-03-06T04:39:49.739Z,1.77
2023-03-06T04:42:19.403Z,2.07
2023-03-06T04:44:48.313Z,1.90
2023-03-06T04:47:19.049Z,1.95
2023-03-06T04:49:48.055Z,2.03
2023-03-06T04:52:17.020Z,1.80
2023-03-06T04:54:47.031Z,1.83
2023-03-06T04:57:16.920Z,2.10
2023-03-06T04:59:46.117Z,1.90
2023-03-06T05:02:14.995Z,2.10
2023-03-06T05:04:44.618Z,2.13
2023-03-06T05:07:13.855Z,2.53
2023-03-06T05:09:42.844Z,1.92
2023-03-06T05:12:11.513Z,1.90
2023-03-06T05:14:40.287Z,1.75
2023-03-06T05:17:08.870Z,2.17
2023-03-06T05:19:38.505Z,1.90
2023-03-06T05:22:07.571Z,1.98
2023-03-06T05:24:38.184Z,2.37
2023-03-06T05:27:07.420Z,1.95
2023-03-06T05:29:36.216Z,1.80
2023-03-06T05:32:05.910Z,1.93
2023-03-06T05:34:34.668Z,1.85
2023-03-06T05:37:03.324Z,1.60
2023-03-06T05:39:32.073Z,1.65
2023-03-06T05:42:01.245Z,1.90
2023-03-06T05:44:34.678Z,1.80
2023-03-06T05:47:03.710Z,1.80
2023-03-06T05:49:37.653Z,1.90
2023-03-06T05:52:08.270Z,1.90
2023-03-06T05:54:38.521Z,1.75
2023-03-06T05:57:07.764Z,2.60
2023-03-06T05:59:37.353Z,1.90
2023-03-06T06:02:06.482Z,1.95
2023-03-06T06:04:35.918Z,1.67
2023-03-06T06:07:04.761Z,2.20
2023-03-06T06:09:34.313Z,1.60
2023-03-06T06:12:05.034Z,1.88
2023-03-06T06:14:36.226Z,1.90
2023-03-06T06:17:05.452Z,2.08
2023-03-06T06:19:34.406Z,2.13
2023-03-06T06:22:04.782Z,2.00
2023-03-06T06:24:34.080Z,2.00
2023-03-06T06:27:04.111Z,2.15
2023-03-06T06:29:34.049Z,2.00
2023-03-06T06:32:03.450Z,1.98
2023-03-06T06:34:33.156Z,1.60
2023-03-06T06:37:02.465Z,1.80
2023-03-06T06:39:31.283Z,1.45
2023-03-06T06:42:25.904Z,2.30
2023-03-06T06:44:49.241Z,1.93
2023-03-06T06:47:23.104Z,1.70
2023-03-06T06:50:00.025Z,1.80
2023-03-06T06:52:29.338Z,1.80
2023-03-06T06:54:58.106Z,1.80
2023-03-06T06:57:27.144Z,1.60
2023-03-06T06:59:55.737Z,1.80
2023-03-06T07:02:25.048Z,2.08
2023-03-06T07:05:03.820Z,2.10
2023-03-06T07:07:38.800Z,2.13
2023-03-06T07:10:14.097Z,1.90
2023-03-06T07:12:43.522Z,1.98
2023-03-06T07:15:15.522Z,1.90
2023-03-06T07:17:44.860Z,2.28
2023-03-06T07:20:13.786Z,2.50
2023-03-06T07:22:50.769Z,2.40
2023-03-06T07:25:21.019Z,2.70
2023-03-06T07:27:53.854Z,2.70
2023-03-06T07:30:24.614Z,2.63
2023-03-06T07:32:55.583Z,2.60
2023-03-06T07:35:26.372Z,3.97
2023-03-06T07:37:55.637Z,3.33
2023-03-06T07:40:25.113Z,3.40
2023-03-06T07:43:12.983Z,3.15
2023-03-06T07:45:57.584Z,2.90
2023-03-06T07:48:26.926Z,2.80
2023-03-06T07:51:01.239Z,2.90
2023-03-06T07:53:31.099Z,3.08
2023-03-06T07:56:00.124Z,3.03
2023-03-06T07:58:29.233Z,3.40
2023-03-06T08:00:58.207Z,2.88
2023-03-06T08:03:27.270Z,3.40
2023-03-06T08:06:05.648Z,3.35
2023-03-06T08:08:36.627Z,3.30
2023-03-06T08:11:05.803Z,3.00
2023-03-06T08:13:35.183Z,2.83
2023-03-06T08:16:04.839Z,2.97
2023-03-06T08:18:34.169Z,2.97
2023-03-06T08:21:13.586Z,2.87
2023-03-06T08:23:43.276Z,2.95
2023-03-06T08:26:19.268Z,3.42
2023-03-06T08:28:49.594Z,2.90
2023-03-06T08:31:27.765Z,3.25
2023-03-06T08:33:58.377Z,2.80
2023-03-06T08:36:27.551Z,3.30
2023-03-06T08:38:56.621Z,3.40
2023-03-06T08:41:26.712Z,3.13
2023-03-06T08:43:55.436Z,3.75
2023-03-06T08:46:27.075Z,3.30
2023-03-06T08:48:55.952Z,3.53
2023-03-06T08:51:25.491Z,3.90
2023-03-06T08:53:55.272Z,3.03
2023-03-06T08:56:30.634Z,2.97
2023-03-06T08:59:02.077Z,3.33
2023-03-06T09:01:37.448Z,3.70
2023-03-06T09:04:12.632Z,3.40
2023-03-06T09:06:43.845Z,3.15
2023-03-06T09:09:13.881Z,2.80
2023-03-06T09:11:42.763Z,3.10
2023-03-06T09:14:11.546Z,2.80
2023-03-06T09:16:41.353Z,2.65
2023-03-06T09:19:10.571Z,2.88
2023-03-06T09:21:39.655Z,3.20
2023-03-06T09:24:09.543Z,2.30
2023-03-06T09:26:46.010Z,2.75
2023-03-06T09:29:17.281Z,2.60
2023-03-06T09:31:47.639Z,2.67
2023-03-06T09:34:16.733Z,2.65
2023-03-06T09:36:56.487Z,2.80
2023-03-06T09:39:28.003Z,2.95
2023-03-06T09:42:01.229Z,2.72
2023-03-06T09:44:36.091Z,3.13
2023-03-06T09:47:19.779Z,2.85
2023-03-06T09:49:51.246Z,2.58
2023-03-06T09:52:53.319Z,2.85
2023-03-06T09:55:28.117Z,2.87
2023-03-06T09:58:37.895Z,2.57
2023-03-06T10:01:22.321Z,2.67
2023-03-06T10:04:21.697Z,2.47
2023-03-06T10:06:54.318Z,2.90
2023-03-06T10:09:37.851Z,2.90
2023-03-06T10:12:25.473Z,2.80
2023-03-06T10:15:21.133Z,2.72
2023-03-06T10:17:50.833Z,3.38
2023-03-06T10:20:35.224Z,2.65
2023-03-06T10:23:05.338Z,2.80
2023-03-06T10:25:48.008Z,2.85
2023-03-06T10:28:18.272Z,3.03
2023-03-06T10:31:07.489Z,3.10
2023-03-06T10:33:52.070Z,3.20
2023-03-06T10:36:22.581Z,2.75
2023-03-06T10:38:51.467Z,3.63
2023-03-06T10:41:23.001Z,3.10
2023-03-06T10:44:07.561Z,4.15
2023-03-06T10:46:43.892Z,4.03
2023-03-06T10:49:31.669Z,3.90
2023-03-06T10:52:07.759Z,3.97
2023-03-06T10:54:42.544Z,3.83
2023-03-06T10:57:32.182Z,4.00
2023-03-06T11:00:03.516Z,4.10
2023-03-06T11:02:42.084Z,3.45
2023-03-06T11:05:22.280Z,3.50
2023-03-06T11:08:22.112Z,3.30
2023-03-06T11:11:03.241Z,3.03
2023-03-06T11:13:36.618Z,2.87
2023-03-06T11:16:26.067Z,2.95
2023-03-06T11:19:04.950Z,2.97
2023-03-06T11:21:38.537Z,3.03
2023-03-06T11:24:19.304Z,2.83
2023-03-06T11:27:02.946Z,2.83
2023-03-06T11:30:00.605Z,2.90
2023-03-06T11:32:33.968Z,2.83
2023-03-06T11:35:10.489Z,2.80
2023-03-06T11:37:55.580Z,2.88
2023-03-06T11:40:43.027Z,2.70
2023-03-06T11:43:24.550Z,2.70
2023-03-06T11:46:14.793Z,2.90
2023-03-06T11:48:53.151Z,2.57
2023-03-06T11:51:30.397Z,2.72
2023-03-06T11:54:01.708Z,2.80
2023-03-06T11:56:54.405Z,2.83
2023-03-06T12:00:04.445Z,2.80
2023-03-06T12:02:57.529Z,2.70
2023-03-06T12:05:49.449Z,3.22
2023-03-06T12:08:43.303Z,2.80
2023-03-06T12:11:33.168Z,2.93
2023-03-06T12:14:24.828Z,2.95
2023-03-06T12:17:08.232Z,3.30
2023-03-06T12:19:59.105Z,3.05
2023-03-06T12:22:57.423Z,2.80
2023-03-06T12:25:50.021Z,3.30
2023-03-06T12:28:56.043Z,3.10
2023-03-06T12:31:52.724Z,3.75
2023-03-06T12:34:43.654Z,3.60
2023-03-06T12:37:21.603Z,3.87
2023-03-06T12:40:29.033Z,4.07
2023-03-06T12:43:24.193Z,4.15
2023-03-06T12:46:00.535Z,3.95
2023-03-06T12:48:33.908Z,4.27
2023-03-06T12:51:04.480Z,4.30
2023-03-06T12:53:34.948Z,3.85
2023-03-06T12:56:06.629Z,4.32
2023-03-06T12:58:37.122Z,4.60
2023-03-06T13:01:38.236Z,4.72
2023-03-06T13:04:28.442Z,5.35
2023-03-06T13:07:18.254Z,5.00
2023-03-06T13:10:12.462Z,5.57
2023-03-06T13:13:01.995Z,5.07
2023-03-06T13:15:44.951Z,5.22
2023-03-06T13:18:23.372Z,4.93
2023-03-06T13:20:59.696Z,4.77
2023-03-06T13:23:52.435Z,5.00
2023-03-06T13:26:27.821Z,4.50
2023-03-06T13:28:58.924Z,4.37
2023-03-06T13:31:49.302Z,3.80
2023-03-06T13:34:33.311Z,4.13
2023-03-06T13:37:25.846Z,3.90
2023-03-06T13:40:00.553Z,3.17
2023-03-06T13:42:37.657Z,3.00
2023-03-06T13:45:10.148Z,3.60
2023-03-06T13:48:09.598Z,3.35
2023-03-06T13:50:47.954Z,3.70
2023-03-06T13:53:25.701Z,4.28
2023-03-06T13:56:17.831Z,4.13
2023-03-06T13:59:17.000Z,4.53
2023-03-06T14:02:11.181Z,4.63
2023-03-06T14:05:01.163Z,4.95
2023-03-06T14:07:34.607Z,4.70
2023-03-06T14:10:15.396Z,4.57
2023-03-06T14:12:56.908Z,4.45
2023-03-06T14:15:54.462Z,4.68
2023-03-06T14:18:45.576Z,4.40
2023-03-06T14:21:18.784Z,4.43
2023-03-06T14:23:48.229Z,4.53
2023-03-06T14:26:25.947Z,4.25
2023-03-06T14:28:56.674Z,4.10
2023-03-06T14:31:38.039Z,4.40
2023-03-06T14:34:09.993Z,4.32
2023-03-06T14:36:46.737Z,4.30
2023-03-06T14:39:29.618Z,4.20
2023-03-06T14:42:19.155Z,4.88
2023-03-06T14:45:21.488Z,4.30
2023-03-06T14:47:52.787Z,4.50
2023-03-06T14:50:31.232Z,4.40
2023-03-06T14:53:24.195Z,3.90
2023-03-06T14:56:04.989Z,3.90
2023-03-06T14:58:40.026Z,4.18
2023-03-06T15:01:11.730Z,4.22
2023-03-06T15:03:54.385Z,4.15
2023-03-06T15:06:48.813Z,4.10
2023-03-06T15:09:33.119Z,4.00
2023-03-06T15:12:24.314Z,3.88
2023-03-06T15:15:05.756Z,3.40
2023-03-06T15:17:46.775Z,4.22
2023-03-06T15:20:38.181Z,4.03
2023-03-06T15:23:27.392Z,3.78
2023-03-06T15:26:01.873Z,3.90
2023-03-06T15:28:37.929Z,4.20
2023-03-06T15:31:23.139Z,3.70
2023-03-06T15:34:24.824Z,3.73
2023-03-06T15:36:57.073Z,4.35
2023-03-06T15:39:42.721Z,3.92
2023-03-06T15:42:22.153Z,4.07
2023-03-06T15:45:01.069Z,4.00
2023-03-06T15:47:30.119Z,4.20
2023-03-06T15:49:59.248Z,3.97
2023-03-06T15:52:29.778Z,4.07
2023-03-06T15:54:59.449Z,4.10
2023-03-06T15:57:33.359Z,4.68
2023-03-06T16:00:03.307Z,4.47
2023-03-06T16:02:40.176Z,4.23
2023-03-06T16:05:28.397Z,3.97
2023-03-06T16:07:58.108Z,4.22
2023-03-06T16:10:29.946Z,3.67
2023-03-06T16:13:04.630Z,3.88
2023-03-06T16:15:40.103Z,3.63
2023-03-06T16:18:12.851Z,3.47
2023-03-06T16:20:45.934Z,3.20
2023-03-06T16:23:16.244Z,3.38
2023-03-06T16:25:48.726Z,3.88
2023-03-06T16:28:19.109Z,4.03
2023-03-06T16:30:47.865Z,3.30
2023-03-06T16:33:17.473Z,2.97
2023-03-06T16:35:48.465Z,2.50
2023-03-06T16:38:22.368Z,1.98
2023-03-06T16:40:51.434Z,1.85
2023-03-06T16:43:19.931Z,2.60
2023-03-06T16:45:49.389Z,2.97
2023-03-06T16:48:18.957Z,2.78
2023-03-06T16:50:47.850Z,2.53
2023-03-06T16:53:16.706Z,2.97
2023-03-06T16:55:46.685Z,3.47
2023-03-06T16:58:15.414Z,3.53
2023-03-06T17:00:44.618Z,3.28
2023-03-06T17:03:14.333Z,3.25
2023-03-06T17:05:44.231Z,2.08
2023-03-06T17:08:14.095Z,2.40
2023-03-06T17:10:43.319Z,2.20
2023-03-06T17:13:13.328Z,2.13
2023-03-06T17:15:42.549Z,2.20
2023-03-06T17:18:13.115Z,1.58
2023-03-06T17:20:49.584Z,1.90
2023-03-06T17:23:19.825Z,1.92
2023-03-06T17:25:48.669Z,1.80
2023-03-06T17:28:18.221Z,1.50
2023-03-06T17:30:47.578Z,1.70
2023-03-06T17:33:16.425Z,1.65
2023-03-06T17:35:46.239Z,1.60
2023-03-06T17:38:20.137Z,1.60
2023-03-06T17:40:49.993Z,1.52
2023-03-06T17:43:19.427Z,1.60
2023-03-06T17:45:48.677Z,1.42
2023-03-06T17:48:18.538Z,1.52
2023-03-06T17:50:55.408Z,1.30
2023-03-06T17:53:25.150Z,1.50
2023-03-06T17:55:54.513Z,1.50
2023-03-06T17:58:23.431Z,1.30
2023-03-06T18:00:53.391Z,1.30
2023-03-06T18:03:22.253Z,1.30
2023-03-06T18:06:11.104Z,2.95
2023-03-06T18:08:40.605Z,3.20
2023-03-06T18:11:11.989Z,2.00
2023-03-06T18:13:43.406Z,1.90
2023-03-06T18:16:15.201Z,1.63
2023-03-06T18:18:44.524Z,1.20
2023-03-06T18:21:16.106Z,1.60
2023-03-06T18:23:45.367Z,1.52
2023-03-06T18:26:33.221Z,1.50
2023-03-06T18:29:06.534Z,1.20
2023-03-06T18:31:43.097Z,1.30
2023-03-06T18:34:15.150Z,1.70
2023-03-06T18:36:44.901Z,2.10
2023-03-06T18:39:16.087Z,2.03
2023-03-06T18:41:46.456Z,1.65
2023-03-06T18:44:17.158Z,1.60
2023-03-06T18:46:48.045Z,1.48
2023-03-06T18:49:18.349Z,1.75
2023-03-06T18:51:49.692Z,1.63
2023-03-06T18:54:18.683Z,1.70
2023-03-06T18:56:47.613Z,1.90
2023-03-06T18:59:22.114Z,2.30
2023-03-06T19:01:52.762Z,3.08
2023-03-06T19:04:22.349Z,2.67
2023-03-06T19:06:53.408Z,2.45
2023-03-06T19:09:59.271Z,3.17
2023-03-06T19:12:31.318Z,2.70
2023-03-06T19:15:01.380Z,3.20
2023-03-06T19:17:32.845Z,3.08
2023-03-06T19:20:01.948Z,2.67
2023-03-06T19:22:33.280Z,2.83
2023-03-06T19:25:04.617Z,2.70
2023-03-06T19:27:36.479Z,3.50
2023-03-06T19:30:07.998Z,3.63
2023-03-06T19:32:39.341Z,3.47
2023-03-06T19:35:11.501Z,2.55
2023-03-06T19:37:43.742Z,2.30
2023-03-06T19:40:15.421Z,2.00
2023-03-06T19:42:44.748Z,2.10
2023-03-06T19:45:17.322Z,1.95
2023-03-06T19:47:48.000Z,1.97
2023-03-06T19:50:17.632Z,1.90
2023-03-06T19:52:46.517Z,2.05
2023-03-06T19:55:15.557Z,1.70
2023-03-06T19:57:46.294Z,1.70
2023-03-06T20:00:52.958Z,1.77
2023-03-06T20:03:24.932Z,1.50
2023-03-06T20:05:55.147Z,1.53
2023-03-06T20:08:24.172Z,1.20
2023-03-06T20:11:34.746Z,1.30
2023-03-06T20:14:06.300Z,1.20
2023-03-06T20:16:36.777Z,1.33
2023-03-06T20:19:07.888Z,1.23
2023-03-06T20:21:38.641Z,1.38
2023-03-06T20:24:09.306Z,1.20
2023-03-06T20:26:39.685Z,1.25
2023-03-06T20:29:08.549Z,1.70
2023-03-06T20:31:38.945Z,1.58
2023-03-06T20:34:08.952Z,1.53
2023-03-06T20:36:41.551Z,1.58
2023-03-06T20:39:16.512Z,1.67
2023-03-06T20:41:47.792Z,1.90
2023-03-06T20:44:31.203Z,1.60
2023-03-06T20:47:00.473Z,1.90
2023-03-06T20:49:29.904Z,1.63
2023-03-06T20:51:59.472Z,1.60
2023-03-06T20:54:28.484Z,1.80
2023-03-06T20:56:57.674Z,1.80
2023-03-06T20:59:26.587Z,1.70
2023-03-06T21:01:55.556Z,1.42
2023-03-06T21:04:24.722Z,1.30
2023-03-06T21:06:54.837Z,1.70
2023-03-06T21:09:23.979Z,1.52
2023-03-06T21:11:53.594Z,1.45
2023-03-06T21:14:23.016Z,1.60
2023-03-06T21:16:52.433Z,1.48
2023-03-06T21:19:21.403Z,1.40
2023-03-06T21:21:51.535Z,1.50
2023-03-06T21:24:23.306Z,1.38
2023-03-06T21:26:52.981Z,1.50
2023-03-06T21:29:22.235Z,1.70
2023-03-06T21:31:51.677Z,1.67
2023-03-06T21:34:21.562Z,1.73
2023-03-06T21:36:52.017Z,1.73
2023-03-06T21:39:21.132Z,1.87
2023-03-06T21:41:50.124Z,1.65
2023-03-06T21:44:19.202Z,1.47
2023-03-06T21:46:48.188Z,1.53
2023-03-06T21:49:17.363Z,1.35
2023-03-06T21:51:46.180Z,1.40
2023-03-06T21:54:15.927Z,1.60
2023-03-06T21:56:44.740Z,1.40
2023-03-06T21:59:14.492Z,1.30
2023-03-06T22:01:43.594Z,1.85
2023-03-06T22:04:12.853Z,1.60
2023-03-06T22:06:42.105Z,1.80
2023-03-06T22:09:14.669Z,1.88
2023-03-06T22:11:44.045Z,1.52
2023-03-06T22:14:13.021Z,1.60
2023-03-06T22:16:42.981Z,1.63
2023-03-06T22:19:11.951Z,1.75
2023-03-06T22:21:41.368Z,1.50
2023-03-06T22:24:10.475Z,1.88
2023-03-06T22:26:40.173Z,1.60
2023-03-06T22:29:08.853Z,1.50
2023-03-06T22:31:40.219Z,1.30
2023-03-06T22:34:09.258Z,1.60
2023-03-06T22:36:38.330Z,1.70
2023-03-06T22:39:07.390Z,1.38
2023-03-06T22:41:36.746Z,1.60
2023-03-06T22:44:06.247Z,1.38
2023-03-06T22:46:35.472Z,1.63
2023-03-06T22:49:04.691Z,1.58
2023-03-06T22:51:33.747Z,1.42
2023-03-06T22:54:02.389Z,1.60
2023-03-06T22:56:32.713Z,1.48
2023-03-06T22:59:02.481Z,1.30
2023-03-06T23:01:34.883Z,1.60
2023-03-06T23:04:09.337Z,1.48
2023-03-06T23:06:40.936Z,1.45
2023-03-06T23:09:21.612Z,1.50
2023-03-06T23:12:10.333Z,1.80
2023-03-06T23:14:57.837Z,1.63
2023-03-06T23:17:45.291Z,1.23
2023-03-06T23:20:33.001Z,1.45
2023-03-06T23:23:20.466Z,1.30
2023-03-06T23:25:49.940Z,1.60
2023-03-06T23:28:19.237Z,1.30
2023-03-06T23:30:48.576Z,1.65
